createdAt,value
2023-04-10T00:00:32.896Z,100882.78
2023-04-10T00:03:02.165Z,100891.38
2023-04-10T00:05:29.464Z,100902.03
2023-04-10T00:07:56.489Z,100896.00
2023-04-10T00:10:23.470Z,100895.19
2023-04-10T00:12:51.259Z,100896.88
2023-04-10T00:15:18.180Z,100904.25
2023-04-10T00:17:45.391Z,100912.78
2023-04-10T00:20:12.859Z,100915.44
2023-04-10T00:22:39.862Z,100928.84
2023-04-10T00:25:07.328Z,100924.53
2023-04-10T00:27:34.327Z,100922.00
2023-04-10T00:30:02.620Z,100932.34
2023-04-10T00:32:29.776Z,100932.09
2023-04-10T00:34:56.744Z,100921.13
2023-04-10T00:37:23.680Z,100917.22
2023-04-10T00:39:50.647Z,100907.59
2023-04-10T00:42:17.550Z,100905.75
2023-04-10T00:44:45.344Z,100917.00
2023-04-10T00:47:14.161Z,100901.19
2023-04-10T00:49:42.106Z,100910.06
2023-04-10T00:52:09.332Z,100905.19
2023-04-10T00:54:36.903Z,100899.75
2023-04-10T00:57:07.590Z,100899.16
2023-04-10T00:59:35.777Z,100902.34
2023-04-10T01:02:03.644Z,100885.03
2023-04-10T01:04:32.088Z,100893.63
2023-04-10T01:07:29.721Z,100898.72
2023-04-10T01:10:05.490Z,100895.31
2023-04-10T01:13:10.608Z,100899.88
2023-04-10T01:15:48.678Z,100912.03
2023-04-10T01:18:41.989Z,100908.50
2023-04-10T01:21:12.719Z,100905.88
2023-04-10T01:24:24.285Z,100901.53
2023-04-10T01:27:37.150Z,100910.19
2023-04-10T01:30:06.801Z,100917.47
2023-04-10T01:32:36.940Z,100917.16
2023-04-10T01:35:07.944Z,100925.88
2023-04-10T01:37:43.630Z,100916.25
2023-04-10T01:40:15.537Z,100927.78
2023-04-10T01:42:48.847Z,100932.38
2023-04-10T01:45:21.538Z,100937.34
2023-04-10T01:47:48.698Z,100938.44
2023-04-10T01:50:16.441Z,100927.31
2023-04-10T01:52:44.407Z,100929.72
2023-04-10T01:55:11.901Z,100932.47
2023-04-10T01:57:38.875Z,100930.09
2023-04-10T02:00:06.861Z,100925.63
2023-04-10T02:02:34.853Z,100908.44
2023-04-10T02:05:02.109Z,100906.75
2023-04-10T02:07:37.176Z,100906.56
2023-04-10T02:10:23.507Z,100907.75
2023-04-10T02:13:00.829Z,100907.88
2023-04-10T02:15:32.397Z,100896.41
2023-04-10T02:18:00.961Z,100887.34
2023-04-10T02:20:28.098Z,100885.78
2023-04-10T02:22:55.833Z,100893.97
2023-04-10T02:25:22.717Z,100889.63
2023-04-10T02:27:49.578Z,100889.72
2023-04-10T02:30:16.659Z,100887.00
2023-04-10T02:32:44.082Z,100884.28
2023-04-10T02:35:11.978Z,100885.88
2023-04-10T02:37:39.172Z,100875.03
2023-04-10T02:40:07.028Z,100883.22
2023-04-10T02:42:33.966Z,100886.72
2023-04-10T02:45:01.007Z,100886.25
2023-04-10T02:47:27.968Z,100884.50
2023-04-10T02:49:54.931Z,100876.41
2023-04-10T02:52:23.192Z,100870.69
2023-04-10T02:54:50.064Z,100866.28
2023-04-10T02:57:16.987Z,100865.84
2023-04-10T02:59:44.635Z,100856.94
2023-04-10T03:02:11.659Z,100863.97
2023-04-10T03:04:38.648Z,100858.88
2023-04-10T03:07:05.633Z,100846.69
2023-04-10T03:09:32.595Z,100846.44
2023-04-10T03:11:59.550Z,100836.94
2023-04-10T03:14:27.130Z,100839.44
2023-04-10T03:16:54.065Z,100841.34
2023-04-10T03:19:20.962Z,100831.63
2023-04-10T03:21:47.946Z,100833.63
2023-04-10T03:24:14.893Z,100824.06
2023-04-10T03:26:43.394Z,100817.88
2023-04-10T03:29:10.480Z,100814.13
2023-04-10T03:31:37.444Z,100820.94
2023-04-10T03:34:04.481Z,100816.41
2023-04-10T03:36:31.577Z,100815.19
2023-04-10T03:38:58.465Z,100811.22
2023-04-10T03:41:25.826Z,100805.53
2023-04-10T03:43:53.209Z,100822.44
2023-04-10T03:46:20.401Z,100827.00
2023-04-10T03:48:47.330Z,100825.75
2023-04-10T03:51:14.264Z,100843.09
2023-04-10T03:53:41.323Z,100836.63
2023-04-10T03:56:08.926Z,100853.78
2023-04-10T03:58:35.798Z,100849.50
2023-04-10T04:01:02.804Z,100854.34
2023-04-10T04:03:31.200Z,100850.19
2023-04-10T04:05:58.194Z,100848.78
2023-04-10T04:08:25.185Z,100840.53
2023-04-10T04:10:52.129Z,100845.41
2023-04-10T04:13:19.015Z,100841.63
2023-04-10T04:15:47.790Z,100826.81
2023-04-10T04:18:14.720Z,100821.66
2023-04-10T04:20:41.614Z,100819.94
2023-04-10T04:23:08.653Z,100818.81
2023-04-10T04:25:35.876Z,100819.81
2023-04-10T04:28:04.876Z,100824.31
2023-04-10T04:30:31.885Z,100827.44
2023-04-10T04:32:58.916Z,100825.53
2023-04-10T04:35:25.952Z,100841.03
2023-04-10T04:37:52.835Z,100846.72
2023-04-10T04:40:19.924Z,100848.88
2023-04-10T04:42:46.955Z,100858.47
2023-04-10T04:45:14.322Z,100855.94
2023-04-10T04:47:41.218Z,100854.00
2023-04-10T04:50:09.424Z,100856.41
2023-04-10T04:52:36.409Z,100848.69
2023-04-10T04:55:03.394Z,100843.47
2023-04-10T04:57:30.435Z,100847.88
2023-04-10T04:59:57.301Z,100852.84
2023-04-10T05:02:24.435Z,100852.84
2023-04-10T05:04:51.430Z,100855.72
2023-04-10T05:07:18.382Z,100861.97
2023-04-10T05:09:45.448Z,100855.16
2023-04-10T05:12:12.393Z,100848.97
2023-04-10T05:14:39.249Z,100849.00
2023-04-10T05:17:06.227Z,100845.69
2023-04-10T05:19:33.152Z,100847.22
2023-04-10T05:22:00.200Z,100836.50
2023-04-10T05:24:27.129Z,100838.34
2023-04-10T05:26:53.998Z,100831.88
2023-04-10T05:29:21.060Z,100832.00
2023-04-10T05:31:48.011Z,100825.38
2023-04-10T05:34:14.953Z,100825.28
2023-04-10T05:36:41.866Z,100834.00
2023-04-10T05:39:08.872Z,100829.50
2023-04-10T05:41:36.058Z,100835.72
2023-04-10T05:44:02.934Z,100837.19
2023-04-10T05:46:29.911Z,100845.66
2023-04-10T05:48:57.019Z,100846.69
2023-04-10T05:51:24.045Z,100852.69
2023-04-10T05:53:51.117Z,100855.59
2023-04-10T05:56:19.164Z,100853.66
2023-04-10T05:58:46.125Z,100860.84
2023-04-10T06:01:13.556Z,100861.19
2023-04-10T06:03:40.831Z,100857.84
2023-04-10T06:06:08.310Z,100862.41
2023-04-10T06:08:35.383Z,100861.59
2023-04-10T06:11:02.413Z,100868.72
2023-04-10T06:13:29.434Z,100861.59
2023-04-10T06:15:56.472Z,100858.50
2023-04-10T06:18:23.441Z,100845.88
2023-04-10T06:20:50.347Z,100841.47
2023-04-10T06:23:17.205Z,100830.81
2023-04-10T06:25:44.511Z,100820.56
2023-04-10T06:28:11.582Z,100812.25
2023-04-10T06:30:38.551Z,100806.38
2023-04-10T06:33:05.530Z,100796.97
2023-04-10T06:35:32.892Z,100797.44
2023-04-10T06:38:00.605Z,100803.72
2023-04-10T06:40:29.425Z,100793.50
2023-04-10T06:42:57.109Z,100782.44
2023-04-10T06:45:24.114Z,100766.91
2023-04-10T06:47:51.933Z,100772.38
2023-04-10T06:50:19.158Z,100773.66
2023-04-10T06:52:47.316Z,100769.53
2023-04-10T06:55:14.462Z,100775.56
2023-04-10T06:57:42.022Z,100781.09
2023-04-10T07:00:09.837Z,100753.38
2023-04-10T07:02:36.780Z,100753.25
2023-04-10T07:05:03.948Z,100747.22
2023-04-10T07:07:31.524Z,100732.94
2023-04-10T07:09:59.561Z,100736.09
2023-04-10T07:12:27.045Z,100731.94
2023-04-10T07:14:54.438Z,100723.56
2023-04-10T07:17:22.233Z,100722.38
2023-04-10T07:19:49.430Z,100701.69
2023-04-10T07:22:16.611Z,100687.34
2023-04-10T07:24:44.743Z,100688.72
2023-04-10T07:27:12.913Z,100683.41
2023-04-10T07:29:39.997Z,100677.25
2023-04-10T07:32:06.972Z,100668.78
2023-04-10T07:34:34.239Z,100673.16
2023-04-10T07:37:01.362Z,100668.59
2023-04-10T07:39:28.535Z,100663.69
2023-04-10T07:41:55.937Z,100668.22
2023-04-10T07:44:23.361Z,100660.66
2023-04-10T07:46:52.403Z,100657.75
2023-04-10T07:49:21.151Z,100659.59
2023-04-10T07:51:48.471Z,100653.81
2023-04-10T07:54:15.656Z,100640.72
2023-04-10T07:56:42.723Z,100649.66
2023-04-10T07:59:10.061Z,100629.56
2023-04-10T08:01:37.087Z,100614.22
2023-04-10T08:04:06.025Z,100603.34
2023-04-10T08:06:33.395Z,100594.84
2023-04-10T08:09:01.660Z,100595.66
2023-04-10T08:11:36.558Z,100586.34
2023-04-10T08:14:06.916Z,100602.50
2023-04-10T08:16:36.174Z,100602.91
2023-04-10T08:19:03.507Z,100587.53
2023-04-10T08:21:34.602Z,100582.63
2023-04-10T08:24:03.696Z,100572.66
2023-04-10T08:26:30.653Z,100570.28
2023-04-10T08:28:59.728Z,100574.03
2023-04-10T08:31:28.818Z,100572.66
2023-04-10T08:33:56.749Z,100565.97
2023-04-10T08:36:24.049Z,100582.09
2023-04-10T08:38:51.170Z,100572.28
2023-04-10T08:41:20.104Z,100577.66
2023-04-10T08:43:47.459Z,100573.59
2023-04-10T08:46:15.148Z,100558.78
2023-04-10T08:48:56.973Z,100562.09
2023-04-10T08:51:29.303Z,100556.19
2023-04-10T08:54:06.398Z,100551.81
2023-04-10T08:56:35.199Z,100541.50
2023-04-10T08:59:03.669Z,100533.97
2023-04-10T09:01:31.675Z,100542.28
2023-04-10T09:03:59.432Z,100534.88
2023-04-10T09:06:27.345Z,100526.81
2023-04-10T09:08:54.400Z,100525.78
2023-04-10T09:11:21.401Z,100528.06
2023-04-10T09:13:48.283Z,100503.16
2023-04-10T09:16:15.429Z,100503.69
2023-04-10T09:18:51.223Z,100507.97
2023-04-10T09:21:22.070Z,100502.00
2023-04-10T09:23:49.724Z,100481.41
2023-04-10T09:26:33.623Z,100482.53
2023-04-10T09:29:02.954Z,100480.66
2023-04-10T09:31:36.210Z,100482.06
2023-04-10T09:34:16.486Z,100480.19
2023-04-10T09:36:54.092Z,100479.91
2023-04-10T09:39:21.361Z,100455.78
2023-04-10T09:41:57.279Z,100454.22
2023-04-10T09:44:38.810Z,100460.41
2023-04-10T09:47:14.813Z,100458.16
2023-04-10T09:49:53.882Z,100443.38
2023-04-10T09:52:28.478Z,100439.56
2023-04-10T09:55:04.554Z,100438.91
2023-04-10T09:57:34.584Z,100446.16
2023-04-10T10:00:05.235Z,100447.84
2023-04-10T10:02:40.113Z,100429.69
2023-04-10T10:05:07.996Z,100417.97
2023-04-10T10:07:35.867Z,100418.66
2023-04-10T10:10:03.851Z,100422.06
2023-04-10T10:12:50.495Z,100432.06
2023-04-10T10:15:23.658Z,100420.59
2023-04-10T10:18:10.427Z,100421.06
2023-04-10T10:20:39.934Z,100413.09
2023-04-10T10:23:08.274Z,100420.81
2023-04-10T10:25:35.776Z,100414.16
2023-04-10T10:28:05.083Z,100397.31
2023-04-10T10:30:35.756Z,100409.88
2023-04-10T10:33:07.488Z,100405.69
2023-04-10T10:35:37.956Z,100418.06
2023-04-10T10:38:05.518Z,100389.19
2023-04-10T10:41:09.647Z,100387.91
2023-04-10T10:43:50.856Z,100368.94
2023-04-10T10:46:39.307Z,100372.63
2023-04-10T10:49:06.259Z,100366.69
2023-04-10T10:51:47.841Z,100359.50
2023-04-10T10:54:47.327Z,100362.28
2023-04-10T10:57:47.778Z,100353.44
2023-04-10T11:00:19.290Z,100354.31
2023-04-10T11:03:09.273Z,100357.97
2023-04-10T11:05:51.328Z,100365.25
2023-04-10T11:08:44.507Z,100370.59
2023-04-10T11:11:27.391Z,100365.34
2023-04-10T11:13:57.047Z,100355.09
2023-04-10T11:16:35.779Z,100367.81
2023-04-10T11:19:13.777Z,100364.53
2023-04-10T11:22:08.348Z,100363.19
2023-04-10T11:25:00.591Z,100361.47
2023-04-10T11:27:51.814Z,100359.69
2023-04-10T11:30:33.921Z,100350.81
2023-04-10T11:33:03.852Z,100343.38
2023-04-10T11:35:32.680Z,100330.97
2023-04-10T11:38:14.401Z,100334.94
2023-04-10T11:41:16.947Z,100311.41
2023-04-10T11:43:43.839Z,100314.81
2023-04-10T11:46:10.995Z,100316.03
2023-04-10T11:48:38.404Z,100311.22
2023-04-10T11:51:10.858Z,100321.72
2023-04-10T11:53:39.267Z,100329.25
2023-04-10T11:56:09.459Z,100313.75
2023-04-10T11:58:36.976Z,100312.16
2023-04-10T12:01:05.164Z,100318.19
2023-04-10T12:03:37.449Z,100306.41
2023-04-10T12:06:15.699Z,100299.97
2023-04-10T12:08:51.026Z,100304.69
2023-04-10T12:11:21.419Z,100295.63
2023-04-10T12:13:52.434Z,100280.88
2023-04-10T12:16:19.678Z,100273.97
2023-04-10T12:18:47.313Z,100267.19
2023-04-10T12:21:14.681Z,100288.47
2023-04-10T12:23:42.493Z,100288.16
2023-04-10T12:26:12.041Z,100293.53
2023-04-10T12:28:41.289Z,100295.75
2023-04-10T12:31:09.307Z,100301.16
2023-04-10T12:33:36.505Z,100289.78
2023-04-10T12:36:03.807Z,100303.34
2023-04-10T12:38:42.946Z,100303.84
2023-04-10T12:41:11.721Z,100295.50
2023-04-10T12:43:42.373Z,100286.69
2023-04-10T12:46:10.846Z,100280.03
2023-04-10T12:48:38.119Z,100273.31
2023-04-10T12:51:05.438Z,100274.53
2023-04-10T12:53:43.121Z,100284.25
2023-04-10T12:56:10.125Z,100280.19
2023-04-10T12:58:37.054Z,100269.56
2023-04-10T13:01:06.899Z,100269.75
2023-04-10T13:03:34.701Z,100260.53
2023-04-10T13:06:02.900Z,100255.41
2023-04-10T13:08:32.301Z,100259.28
2023-04-10T13:11:03.080Z,100247.81
2023-04-10T13:13:32.836Z,100239.47
2023-04-10T13:16:00.559Z,100232.59
2023-04-10T13:18:27.712Z,100233.34
2023-04-10T13:20:54.760Z,100216.81
2023-04-10T13:23:21.800Z,100207.25
2023-04-10T13:25:49.791Z,100207.78
2023-04-10T13:28:18.868Z,100206.41
2023-04-10T13:30:45.858Z,100203.72
2023-04-10T13:33:12.904Z,100196.28
2023-04-10T13:35:42.602Z,100197.34
2023-04-10T13:38:11.631Z,100196.97
2023-04-10T13:40:38.655Z,100205.47
2023-04-10T13:43:06.714Z,100201.06
2023-04-10T13:45:34.887Z,100180.53
2023-04-10T13:48:01.984Z,100167.19
2023-04-10T13:50:28.939Z,100167.53
2023-04-10T13:52:55.941Z,100156.22
2023-04-10T13:55:22.904Z,100144.88
2023-04-10T13:57:49.807Z,100141.59
2023-04-10T14:00:17.471Z,100142.50
2023-04-10T14:02:45.259Z,100138.69
2023-04-10T14:05:12.448Z,100142.59
2023-04-10T14:07:39.357Z,100143.31
2023-04-10T14:10:07.552Z,100141.03
2023-04-10T14:12:36.032Z,100132.13
2023-04-10T14:15:05.124Z,100127.84
2023-04-10T14:17:32.238Z,100122.69
2023-04-10T14:19:59.229Z,100120.81
2023-04-10T14:22:26.201Z,100113.94
2023-04-10T14:25:01.711Z,100114.25
2023-04-10T14:27:36.672Z,100107.59
2023-04-10T14:30:04.189Z,100111.28
2023-04-10T14:32:31.145Z,100099.09
2023-04-10T14:34:58.139Z,100109.09
2023-04-10T14:37:25.045Z,100099.75
2023-04-10T14:39:52.130Z,100104.50
2023-04-10T14:42:19.063Z,100090.56
2023-04-10T14:44:46.165Z,100081.41
2023-04-10T14:47:13.725Z,100074.19
2023-04-10T14:49:42.345Z,100066.69
2023-04-10T14:52:09.412Z,100064.09
2023-04-10T14:54:36.687Z,100058.75
2023-04-10T14:57:04.347Z,100054.34
2023-04-10T14:59:31.807Z,100052.56
2023-04-10T15:01:58.996Z,100056.81
2023-04-10T15:04:26.110Z,100055.63
2023-04-10T15:06:53.062Z,100048.53
2023-04-10T15:09:21.910Z,100043.94
2023-04-10T15:11:49.018Z,100043.56
2023-04-10T15:14:16.104Z,100030.94
2023-04-10T15:16:43.146Z,100028.84
2023-04-10T15:19:10.259Z,100026.47
2023-04-10T15:21:37.248Z,100032.78
2023-04-10T15:24:05.950Z,100043.63
2023-04-10T15:26:33.193Z,100035.25
2023-04-10T15:29:00.117Z,100038.06
2023-04-10T15:31:27.293Z,100030.19
2023-04-10T15:33:54.758Z,100028.56
2023-04-10T15:36:22.028Z,100033.47
2023-04-10T15:38:50.386Z,100033.09
2023-04-10T15:41:17.448Z,100042.56
2023-04-10T15:43:44.437Z,100041.19
2023-04-10T15:46:11.690Z,100039.03
2023-04-10T15:48:39.061Z,100037.56
2023-04-10T15:51:07.101Z,100040.09
2023-04-10T15:53:35.043Z,100036.84
2023-04-10T15:56:05.418Z,100034.81
2023-04-10T15:58:33.485Z,100033.31
2023-04-10T16:01:00.831Z,100036.44
2023-04-10T16:03:30.177Z,100016.75
2023-04-10T16:05:58.317Z,100013.13
2023-04-10T16:08:26.299Z,100007.84
2023-04-10T16:10:54.189Z,100006.22
2023-04-10T16:13:21.380Z,100011.97
2023-04-10T16:15:50.098Z,100006.72
2023-04-10T16:18:17.269Z,100019.69
2023-04-10T16:20:44.387Z,100019.28
2023-04-10T16:23:11.377Z,100018.03
2023-04-10T16:25:38.354Z,100014.63
2023-04-10T16:28:07.773Z,100015.00
2023-04-10T16:30:35.795Z,100004.69
2023-04-10T16:33:04.176Z,100011.00
2023-04-10T16:35:31.721Z,100017.88
2023-04-10T16:37:59.029Z,100014.06
2023-04-10T16:40:32.946Z,100011.81
2023-04-10T16:43:01.770Z,100022.16
2023-04-10T16:45:28.841Z,100019.13
2023-04-10T16:47:55.910Z,100022.34
2023-04-10T16:50:22.933Z,100020.13
2023-04-10T16:52:50.548Z,100015.44
2023-04-10T16:55:17.712Z,100017.25
2023-04-10T16:57:44.745Z,100021.72
2023-04-10T17:00:12.348Z,100020.88
2023-04-10T17:02:39.431Z,100020.28
2023-04-10T17:05:06.632Z,100023.50
2023-04-10T17:07:34.432Z,100015.41
2023-04-10T17:10:01.491Z,100021.91
2023-04-10T17:12:28.567Z,100005.25
2023-04-10T17:14:55.601Z,99993.50
2023-04-10T17:17:22.611Z,99993.69
2023-04-10T17:19:49.832Z,99986.03
2023-04-10T17:22:16.794Z,99986.22
2023-04-10T17:24:44.983Z,99983.38
2023-04-10T17:27:13.615Z,99979.88
2023-04-10T17:29:41.171Z,99979.13
2023-04-10T17:32:08.680Z,99973.03
2023-04-10T17:34:35.984Z,99974.22
2023-04-10T17:37:03.116Z,99968.72
2023-04-10T17:39:30.135Z,99953.97
2023-04-10T17:41:57.216Z,99940.19
2023-04-10T17:44:24.227Z,99929.88
2023-04-10T17:46:53.397Z,99929.78
2023-04-10T17:49:22.064Z,99936.84
2023-04-10T17:51:49.795Z,99933.22
2023-04-10T17:54:16.888Z,99929.19
2023-04-10T17:56:44.003Z,99938.06
2023-04-10T17:59:11.004Z,99935.69
2023-04-10T18:01:38.395Z,99952.31
2023-04-10T18:04:05.866Z,99948.06
2023-04-10T18:06:32.973Z,99953.88
2023-04-10T18:09:00.121Z,99958.28
2023-04-10T18:11:27.347Z,99965.56
2023-04-10T18:13:54.431Z,99980.72
2023-04-10T18:16:21.372Z,99984.66
2023-04-10T18:18:48.277Z,99994.56
2023-04-10T18:21:16.027Z,99991.44
2023-04-10T18:23:44.493Z,100000.50
2023-04-10T18:26:12.238Z,100013.03
2023-04-10T18:28:39.556Z,100010.31
2023-04-10T18:31:08.342Z,100002.25
2023-04-10T18:33:35.332Z,99991.69
2023-04-10T18:36:03.492Z,99989.00
2023-04-10T18:38:30.782Z,99983.81
2023-04-10T18:40:58.314Z,99984.47
2023-04-10T18:43:27.458Z,99999.84
2023-04-10T18:45:55.133Z,100002.03
2023-04-10T18:48:22.559Z,100010.97
2023-04-10T18:50:53.114Z,99998.84
2023-04-10T18:53:21.102Z,100001.56
2023-04-10T18:55:52.417Z,100000.50
2023-04-10T18:58:21.217Z,99998.88
2023-04-10T19:00:48.461Z,100005.41
2023-04-10T19:03:15.881Z,100015.06
2023-04-10T19:05:43.608Z,100024.97
2023-04-10T19:08:14.319Z,100020.72
2023-04-10T19:10:42.930Z,100022.47
2023-04-10T19:13:11.988Z,100038.34
2023-04-10T19:15:46.665Z,100035.78
2023-04-10T19:18:15.029Z,100058.34
2023-04-10T19:20:50.586Z,100052.81
2023-04-10T19:23:19.775Z,100059.44
2023-04-10T19:25:47.303Z,100051.19
2023-04-10T19:28:14.334Z,100057.34
2023-04-10T19:30:41.242Z,100041.91
2023-04-10T19:33:08.114Z,100034.31
2023-04-10T19:35:35.252Z,100031.75
2023-04-10T19:38:02.221Z,100034.16
2023-04-10T19:40:31.384Z,100027.06
2023-04-10T19:43:00.334Z,100024.22
2023-04-10T19:45:29.116Z,100023.09
2023-04-10T19:47:56.948Z,100018.28
2023-04-10T19:50:24.097Z,100014.47
2023-04-10T19:52:52.513Z,100018.09
2023-04-10T19:55:19.614Z,100017.06
2023-04-10T19:57:47.790Z,100022.41
2023-04-10T20:00:14.859Z,100022.59
2023-04-10T20:02:42.051Z,100018.28
2023-04-10T20:05:09.921Z,100010.56
2023-04-10T20:07:36.984Z,100006.56
2023-04-10T20:10:04.812Z,99990.72
2023-04-10T20:12:35.563Z,99979.09
2023-04-10T20:15:04.093Z,99984.91
2023-04-10T20:17:31.158Z,99978.66
2023-04-10T20:19:58.437Z,99967.00
2023-04-10T20:22:25.546Z,99965.03
2023-04-10T20:24:53.681Z,99953.22
2023-04-10T20:27:20.696Z,99949.84
2023-04-10T20:29:47.623Z,99941.28
2023-04-10T20:32:14.580Z,99957.78
2023-04-10T20:34:41.545Z,99959.34
2023-04-10T20:37:08.554Z,99954.97
2023-04-10T20:39:37.720Z,99960.22
2023-04-10T20:42:06.064Z,99956.13
2023-04-10T20:44:37.765Z,99958.44
2023-04-10T20:47:08.122Z,99959.00
2023-04-10T20:49:37.443Z,99955.19
2023-04-10T20:52:05.995Z,99943.75
2023-04-10T20:54:33.743Z,99942.13
2023-04-10T20:57:01.847Z,99948.13
2023-04-10T20:59:29.957Z,99936.50
2023-04-10T21:01:58.304Z,99931.66
2023-04-10T21:04:25.677Z,99952.63
2023-04-10T21:06:53.396Z,99962.09
2023-04-10T21:09:21.500Z,99967.53
2023-04-10T21:11:48.452Z,99964.91
2023-04-10T21:14:15.480Z,99968.72
2023-04-10T21:16:42.650Z,99963.56
2023-04-10T21:19:09.790Z,99965.34
2023-04-10T21:21:39.269Z,99953.06
2023-04-10T21:24:06.354Z,99966.16
2023-04-10T21:26:33.296Z,99948.19
2023-04-10T21:29:01.463Z,99939.69
2023-04-10T21:31:28.417Z,99928.09
2023-04-10T21:33:55.409Z,99929.84
2023-04-10T21:36:22.369Z,99921.28
2023-04-10T21:38:49.333Z,99918.72
2023-04-10T21:41:16.383Z,99914.91
2023-04-10T21:43:43.313Z,99912.22
2023-04-10T21:46:10.965Z,99907.59
2023-04-10T21:48:37.952Z,99902.28
2023-04-10T21:51:05.331Z,99898.56
2023-04-10T21:53:32.363Z,99879.38
2023-04-10T21:55:59.290Z,99879.41
2023-04-10T21:58:26.217Z,99867.50
2023-04-10T22:00:54.303Z,99856.47
2023-04-10T22:03:22.597Z,99867.72
2023-04-10T22:05:50.573Z,99858.84
2023-04-10T22:08:19.891Z,99853.31
2023-04-10T22:10:48.119Z,99851.19
2023-04-10T22:13:27.462Z,99832.19
2023-04-10T22:15:57.136Z,99826.13
2023-04-10T22:18:24.078Z,99814.13
2023-04-10T22:20:51.050Z,99816.56
2023-04-10T22:23:17.923Z,99823.03
2023-04-10T22:25:44.932Z,99811.72
2023-04-10T22:28:11.957Z,99815.88
2023-04-10T22:30:38.998Z,99832.75
2023-04-10T22:33:06.033Z,99829.66
2023-04-10T22:35:33.369Z,99827.38
2023-04-10T22:38:00.453Z,99845.88
2023-04-10T22:40:28.426Z,99857.13
2023-04-10T22:42:55.408Z,99857.03
2023-04-10T22:45:22.285Z,99862.25
2023-04-10T22:47:49.168Z,99856.41
2023-04-10T22:50:16.124Z,99864.63
2023-04-10T22:52:43.110Z,99856.47
2023-04-10T22:55:10.472Z,99880.34
2023-04-10T22:57:37.489Z,99898.84
2023-04-10T23:00:04.918Z,99914.09
2023-04-10T23:02:31.848Z,99919.34
2023-04-10T23:04:59.985Z,99948.28
2023-04-10T23:07:28.048Z,99952.63
2023-04-10T23:09:54.988Z,99949.97
2023-04-10T23:12:21.899Z,99940.41
2023-04-10T23:14:48.788Z,99925.41
2023-04-10T23:17:15.703Z,99930.19
2023-04-10T23:19:42.571Z,99938.22
2023-04-10T23:22:09.492Z,99929.47
2023-04-10T23:24:38.466Z,99936.81
2023-04-10T23:27:08.648Z,99942.53
2023-04-10T23:29:37.573Z,99946.50
2023-04-10T23:32:04.572Z,99930.28
2023-04-10T23:34:31.457Z,99930.13
2023-04-10T23:36:58.481Z,99929.72
2023-04-10T23:39:25.431Z,99937.72
2023-04-10T23:41:52.655Z,99927.47
2023-04-10T23:44:19.674Z,99922.72
2023-04-10T23:46:46.657Z,99919.53
2023-04-10T23:49:13.607Z,99912.53
2023-04-10T23:51:40.577Z,99907.00
2023-04-10T23:54:07.640Z,99906.19
2023-04-10T23:56:34.600Z,99907.56
2023-04-10T23:59:01.521Z,99909.25
